Temple, TX (76504)

12:12 PM CST on December 27, 2014 (GMT -0600)
SW Temple | Change Station
CLOSE
Current Station
Personal Weather Station
Location: Temple, TX
Elevation: 570 ft
Nearby Weather Stations

Elev 570 ft 31.08 °N, 97.39 °W | Updated 8 minutes ago

Overcast
Overcast
46.6 °F
Feels Like 47 °F
N
0.0
Wind Variable Wind from WSW
Gusts 5.0 mph

Today
High -- | Low -- °F
--% Chance of Precip.
Yesterday
High -- | Low -- °F
Precip. -- in
7:26 AM 5:34 PM
Waxing Crescent, 38% visible
Pressure 30.17 in
Visibility 10.0 miles
Clouds Overcast 3100 ft
Windchill 47 °F
Dew Point 39 °F
Humidity 74%
Rainfall 0.00 in
Snow Depth Not available.
UV 1 out of 12
Pollen 9.60 out of 12
Air Quality Not available.
Flu Activity Not available.
METAR KTPL 271755Z AUTO 35016G22KT 10SM OVC031 07/00 A3017 RMK AO1 10110 20070 52007

More Conditions Fewer Conditions

Pressure 30.17 in
Visibility 10.0 miles
Clouds Overcast 3100 ft
Windchill 47 °F
Dew Point 39 °F
Humidity 74%
Rainfall 0.00 in
Snow Depth Not available.
UV 1 out of 12
Pollen 9.60 out of 12
Air Quality Not available.
Flu Activity Not available.
METAR KTPL 271755Z AUTO 35016G22KT 10SM OVC031 07/00 A3017 RMK AO1 10110 20070 52007

More Conditions Fewer Conditions

Nowcast | as of 11:46 am CST on December 27, 2014

A mix of rain...sleet...and snow will continue into the early afternoon northwest of an Eastland to Mineral Wells to Gainesville line. Light accumulations on elevated surfaces...especially bridges and overpasses...may cause travel difficulties. Motorists traveling in this area are urged to use caution. Elsewhere...isolated to scattered rain showers will be possible this afternoon. Total rainfall amounts for areas that do receive rain will generally be light...and likely less than one tenth of an inch. Skies will remain cloudy with northwest winds at 15 to 20 mph. Temperatures will stay steady or fall slightly through the day...with most areas in the mid 30s and 40s.

×

10-Day Weather Forecast

Almanac

Astronomy

Dec. 27, 2014 Rise Set
Actual Time
Civil Twilight
Nautical Twilight
Astronomical Twilight
Moon
Length of Visible Light
Length of Day
Tomorrow will be .
, % of the Moon is Illuminated

Today's Extremes

State Highs State Lows

Community

WunderPhotos

Upload Photos

1,780,981 photos uploaded!

WunderBlogs® & News

Nearby

Air Quality

  Air Quality AQ Index Pollutant
Not available.

Snow Depth

Station Depth Elevation

Earthquake Activity

City Distance Mag. Time & Date
Minimum magnitude displayed is 2.5.

Coastal Water Temperatures

Place Temperature

Nearby Weather Stations